<?xml version="1.0" encoding="UTF-8"?>
<gpx xmlns="http://www.topografix.com/GPX/1/1" xmlns:xsi="http://www.w3.org/2001/XMLSchema-instance" version="1.1" xsi:schemaLocation="http://www.topografix.com/GPX/1/1 http://www.topografix.com/GPX/1/1/gpx.xsd">
  <metadata>
    <name>Mightyman Montauk Triathlon Festival 2022 - Olympic Aquabike</name>
  </metadata>
  <trk>
    <name>Mightyman Montauk Triathlon Festival 2022 - Olympic Aquabike</name>
    <trkseg>
      <trkpt lat="41.0365" lon="-71.944767">
        <ele>4.831863</ele>
        <time>2024-09-22T07:20:00.000Z</time>
      </trkpt>
      <trkpt lat="41.03659" lon="-71.944778">
        <ele>4.831853</ele>
        <time>2024-09-22T07:20:01.000Z</time>
      </trkpt>
      <trkpt lat="41.037618" lon="-71.945073">
        <ele>4.944541</ele>
        <time>2024-09-22T07:20:13.000Z</time>
      </trkpt>
      <trkpt lat="41.037755" lon="-71.94512">
        <ele>5.01599</ele>
        <time>2024-09-22T07:20:15.000Z</time>
      </trkpt>
      <trkpt lat="41.038212" lon="-71.945245">
        <ele>5.235076</ele>
        <time>2024-09-22T07:20:20.000Z</time>
      </trkpt>
      <trkpt lat="41.038561" lon="-71.945341">
        <ele>5.412564</ele>
        <time>2024-09-22T07:20:24.000Z</time>
      </trkpt>
      <trkpt lat="41.03944" lon="-71.945584">
        <ele>5.843168</ele>
        <time>2024-09-22T07:20:34.000Z</time>
      </trkpt>
      <trkpt lat="41.039926" lon="-71.945752">
        <ele>6.093919</ele>
        <time>2024-09-22T07:20:40.000Z</time>
      </trkpt>
      <trkpt lat="41.04054" lon="-71.946022">
        <ele>6.417326</ele>
        <time>2024-09-22T07:20:47.000Z</time>
      </trkpt>
      <trkpt lat="41.040979" lon="-71.946281">
        <ele>6.500095</ele>
        <time>2024-09-22T07:20:52.000Z</time>
      </trkpt>
      <trkpt lat="41.041876" lon="-71.946871">
        <ele>5.774001</ele>
        <time>2024-09-22T07:21:03.000Z</time>
      </trkpt>
      <trkpt lat="41.042577" lon="-71.94737">
        <ele>5.150188</ele>
        <time>2024-09-22T07:21:12.000Z</time>
      </trkpt>
      <trkpt lat="41.042725" lon="-71.947518">
        <ele>4.910866</ele>
        <time>2024-09-22T07:21:14.000Z</time>
      </trkpt>
      <trkpt lat="41.042997" lon="-71.947852">
        <ele>4.457588</ele>
        <time>2024-09-22T07:21:18.000Z</time>
      </trkpt>
      <trkpt lat="41.04335" lon="-71.948468">
        <ele>3.767056</ele>
        <time>2024-09-22T07:21:24.000Z</time>
      </trkpt>
      <trkpt lat="41.043853" lon="-71.949607">
        <ele>3.229404</ele>
        <time>2024-09-22T07:21:35.000Z</time>
      </trkpt>
      <trkpt lat="41.044105" lon="-71.95002">
        <ele>3.319403</ele>
        <time>2024-09-22T07:21:39.000Z</time>
      </trkpt>
      <trkpt lat="41.044308" lon="-71.950252">
        <ele>3.38206</ele>
        <time>2024-09-22T07:21:42.000Z</time>
      </trkpt>
      <trkpt lat="41.044511" lon="-71.950411">
        <ele>3.435915</ele>
        <time>2024-09-22T07:21:45.000Z</time>
      </trkpt>
      <trkpt lat="41.045304" lon="-71.950915">
        <ele>3.540536</ele>
        <time>2024-09-22T07:21:55.000Z</time>
      </trkpt>
      <trkpt lat="41.046732" lon="-71.951761">
        <ele>3.473364</ele>
        <time>2024-09-22T07:22:12.000Z</time>
      </trkpt>
      <trkpt lat="41.047498" lon="-71.952187">
        <ele>3.145855</ele>
        <time>2024-09-22T07:22:21.000Z</time>
      </trkpt>
      <trkpt lat="41.047912" lon="-71.952333">
        <ele>2.979603</ele>
        <time>2024-09-22T07:22:26.000Z</time>
      </trkpt>
      <trkpt lat="41.048442" lon="-71.95248">
        <ele>3.191692</ele>
        <time>2024-09-22T07:22:32.000Z</time>
      </trkpt>
      <trkpt lat="41.048771" lon="-71.952523">
        <ele>3.732666</ele>
        <time>2024-09-22T07:22:36.000Z</time>
      </trkpt>
      <trkpt lat="41.04933" lon="-71.952509">
        <ele>4.62554</ele>
        <time>2024-09-22T07:22:42.000Z</time>
      </trkpt>
      <trkpt lat="41.04972" lon="-71.952466">
        <ele>5.253159</ele>
        <time>2024-09-22T07:22:46.000Z</time>
      </trkpt>
      <trkpt lat="41.049803" lon="-71.952446">
        <ele>5.38555</ele>
        <time>2024-09-22T07:22:47.000Z</time>
      </trkpt>
      <trkpt lat="41.05006" lon="-71.952398">
        <ele>5.907498</ele>
        <time>2024-09-22T07:22:50.000Z</time>
      </trkpt>
      <trkpt lat="41.050624" lon="-71.952218">
        <ele>8.66813</ele>
        <time>2024-09-22T07:22:56.000Z</time>
      </trkpt>
      <trkpt lat="41.051266" lon="-71.951972">
        <ele>11.852448</ele>
        <time>2024-09-22T07:23:03.000Z</time>
      </trkpt>
      <trkpt lat="41.05388" lon="-71.950974">
        <ele>26.629972</ele>
        <time>2024-09-22T07:23:33.000Z</time>
      </trkpt>
      <trkpt lat="41.054301" lon="-71.950846">
        <ele>28.235039</ele>
        <time>2024-09-22T07:23:38.000Z</time>
      </trkpt>
      <trkpt lat="41.055197" lon="-71.950677">
        <ele>31.570815</ele>
        <time>2024-09-22T07:23:48.000Z</time>
      </trkpt>
      <trkpt lat="41.05702" lon="-71.950541">
        <ele>34.127801</ele>
        <time>2024-09-22T07:24:08.000Z</time>
      </trkpt>
      <trkpt lat="41.059328" lon="-71.950345">
        <ele>34.690424</ele>
        <time>2024-09-22T07:24:34.000Z</time>
      </trkpt>
      <trkpt lat="41.060021" lon="-71.950189">
        <ele>34.75892</ele>
        <time>2024-09-22T07:24:42.000Z</time>
      </trkpt>
      <trkpt lat="41.060859" lon="-71.94994">
        <ele>34.375657</ele>
        <time>2024-09-22T07:24:52.000Z</time>
      </trkpt>
      <trkpt lat="41.061647" lon="-71.949552">
        <ele>32.945388</ele>
        <time>2024-09-22T07:25:01.000Z</time>
      </trkpt>
      <trkpt lat="41.062842" lon="-71.948928">
        <ele>29.325581</ele>
        <time>2024-09-22T07:25:15.000Z</time>
      </trkpt>
      <trkpt lat="41.066904" lon="-71.946803">
        <ele>11.387741</ele>
        <time>2024-09-22T07:26:04.000Z</time>
      </trkpt>
      <trkpt lat="41.068869" lon="-71.945764">
        <ele>5.440841</ele>
        <time>2024-09-22T07:26:28.000Z</time>
      </trkpt>
      <trkpt lat="41.069553" lon="-71.945344">
        <ele>4.168491</ele>
        <time>2024-09-22T07:26:36.000Z</time>
      </trkpt>
      <trkpt lat="41.069859" lon="-71.945062">
        <ele>3.59834</ele>
        <time>2024-09-22T07:26:40.000Z</time>
      </trkpt>
      <trkpt lat="41.070108" lon="-71.944795">
        <ele>3.121589</ele>
        <time>2024-09-22T07:26:44.000Z</time>
      </trkpt>
      <trkpt lat="41.0706" lon="-71.944098">
        <ele>2.245674</ele>
        <time>2024-09-22T07:26:52.000Z</time>
      </trkpt>
      <trkpt lat="41.071065" lon="-71.943317">
        <ele>1.852123</ele>
        <time>2024-09-22T07:27:00.000Z</time>
      </trkpt>
      <trkpt lat="41.071195" lon="-71.943107">
        <ele>1.752705</ele>
        <time>2024-09-22T07:27:02.000Z</time>
      </trkpt>
      <trkpt lat="41.071559" lon="-71.942525">
        <ele>1.45704</ele>
        <time>2024-09-22T07:27:08.000Z</time>
      </trkpt>
      <trkpt lat="41.071694" lon="-71.942268">
        <ele>1.468626</ele>
        <time>2024-09-22T07:27:11.000Z</time>
      </trkpt>
      <trkpt lat="41.071707" lon="-71.942006">
        <ele>1.495985</ele>
        <time>2024-09-22T07:27:13.000Z</time>
      </trkpt>
      <trkpt lat="41.071667" lon="-71.941822">
        <ele>1.517929</ele>
        <time>2024-09-22T07:27:15.000Z</time>
      </trkpt>
      <trkpt lat="41.071597" lon="-71.94174">
        <ele>1.530449</ele>
        <time>2024-09-22T07:27:16.000Z</time>
      </trkpt>
      <trkpt lat="41.071086" lon="-71.941082">
        <ele>1.633518</ele>
        <time>2024-09-22T07:27:24.000Z</time>
      </trkpt>
      <trkpt lat="41.070756" lon="-71.94076">
        <ele>1.692093</ele>
        <time>2024-09-22T07:27:29.000Z</time>
      </trkpt>
      <trkpt lat="41.070419" lon="-71.940536">
        <ele>1.705891</ele>
        <time>2024-09-22T07:27:33.000Z</time>
      </trkpt>
      <trkpt lat="41.070166" lon="-71.940389">
        <ele>1.713938</ele>
        <time>2024-09-22T07:27:36.000Z</time>
      </trkpt>
      <trkpt lat="41.07001" lon="-71.940325">
        <ele>1.718226</ele>
        <time>2024-09-22T07:27:38.000Z</time>
      </trkpt>
      <trkpt lat="41.069659" lon="-71.940243">
        <ele>1.728528</ele>
        <time>2024-09-22T07:27:42.000Z</time>
      </trkpt>
      <trkpt lat="41.069142" lon="-71.940193">
        <ele>1.743067</ele>
        <time>2024-09-22T07:27:48.000Z</time>
      </trkpt>
      <trkpt lat="41.068008" lon="-71.940177">
        <ele>1.693062</ele>
        <time>2024-09-22T07:28:01.000Z</time>
      </trkpt>
      <trkpt lat="41.067653" lon="-71.940116">
        <ele>1.673726</ele>
        <time>2024-09-22T07:28:05.000Z</time>
      </trkpt>
      <trkpt lat="41.067417" lon="-71.940049">
        <ele>1.660233</ele>
        <time>2024-09-22T07:28:08.000Z</time>
      </trkpt>
      <trkpt lat="41.066976" lon="-71.939812">
        <ele>1.653686</ele>
        <time>2024-09-22T07:28:13.000Z</time>
      </trkpt>
      <trkpt lat="41.066617" lon="-71.939397">
        <ele>1.662672</ele>
        <time>2024-09-22T07:28:18.000Z</time>
      </trkpt>
      <trkpt lat="41.066395" lon="-71.939044">
        <ele>1.668876</ele>
        <time>2024-09-22T07:28:22.000Z</time>
      </trkpt>
      <trkpt lat="41.066195" lon="-71.938726">
        <ele>1.674603</ele>
        <time>2024-09-22T07:28:25.000Z</time>
      </trkpt>
      <trkpt lat="41.066082" lon="-71.938538">
        <ele>1.677857</ele>
        <time>2024-09-22T07:28:27.000Z</time>
      </trkpt>
      <trkpt lat="41.065969" lon="-71.938352">
        <ele>1.681235</ele>
        <time>2024-09-22T07:28:29.000Z</time>
      </trkpt>
      <trkpt lat="41.065708" lon="-71.937966">
        <ele>1.636092</ele>
        <time>2024-09-22T07:28:33.000Z</time>
      </trkpt>
      <trkpt lat="41.065349" lon="-71.9376">
        <ele>1.580179</ele>
        <time>2024-09-22T07:28:38.000Z</time>
      </trkpt>
      <trkpt lat="41.064767" lon="-71.93708">
        <ele>1.493295</ele>
        <time>2024-09-22T07:28:46.000Z</time>
      </trkpt>
      <trkpt lat="41.063466" lon="-71.936091">
        <ele>1.617517</ele>
        <time>2024-09-22T07:29:03.000Z</time>
      </trkpt>
      <trkpt lat="41.061791" lon="-71.935025">
        <ele>2.166168</ele>
        <time>2024-09-22T07:29:24.000Z</time>
      </trkpt>
      <trkpt lat="41.060478" lon="-71.934174">
        <ele>2.674485</ele>
        <time>2024-09-22T07:29:40.000Z</time>
      </trkpt>
      <trkpt lat="41.060059" lon="-71.933858">
        <ele>2.83984</ele>
        <time>2024-09-22T07:29:45.000Z</time>
      </trkpt>
      <trkpt lat="41.059853" lon="-71.933722">
        <ele>2.917197</ele>
        <time>2024-09-22T07:29:48.000Z</time>
      </trkpt>
      <trkpt lat="41.058586" lon="-71.932709">
        <ele>2.960083</ele>
        <time>2024-09-22T07:30:04.000Z</time>
      </trkpt>
      <trkpt lat="41.058198" lon="-71.932371">
        <ele>2.95624</ele>
        <time>2024-09-22T07:30:09.000Z</time>
      </trkpt>
      <trkpt lat="41.057767" lon="-71.931948">
        <ele>2.834799</ele>
        <time>2024-09-22T07:30:15.000Z</time>
      </trkpt>
      <trkpt lat="41.056843" lon="-71.930856">
        <ele>2.554485</ele>
        <time>2024-09-22T07:30:29.000Z</time>
      </trkpt>
      <trkpt lat="41.056558" lon="-71.930591">
        <ele>2.42843</ele>
        <time>2024-09-22T07:30:33.000Z</time>
      </trkpt>
      <trkpt lat="41.056274" lon="-71.930298">
        <ele>2.290739</ele>
        <time>2024-09-22T07:30:37.000Z</time>
      </trkpt>
      <trkpt lat="41.056129" lon="-71.930179">
        <ele>2.226426</ele>
        <time>2024-09-22T07:30:39.000Z</time>
      </trkpt>
      <trkpt lat="41.055681" lon="-71.929872">
        <ele>2.042222</ele>
        <time>2024-09-22T07:30:45.000Z</time>
      </trkpt>
      <trkpt lat="41.05517" lon="-71.929621">
        <ele>1.843942</ele>
        <time>2024-09-22T07:30:51.000Z</time>
      </trkpt>
      <trkpt lat="41.054753" lon="-71.929491">
        <ele>1.735753</ele>
        <time>2024-09-22T07:30:56.000Z</time>
      </trkpt>
      <trkpt lat="41.053147" lon="-71.929203">
        <ele>1.55004</ele>
        <time>2024-09-22T07:31:14.000Z</time>
      </trkpt>
      <trkpt lat="41.052326" lon="-71.929068">
        <ele>1.892137</ele>
        <time>2024-09-22T07:31:23.000Z</time>
      </trkpt>
      <trkpt lat="41.051259" lon="-71.928884">
        <ele>2.618818</ele>
        <time>2024-09-22T07:31:35.000Z</time>
      </trkpt>
      <trkpt lat="41.050542" lon="-71.928765">
        <ele>3.353578</ele>
        <time>2024-09-22T07:31:43.000Z</time>
      </trkpt>
      <trkpt lat="41.048359" lon="-71.92833">
        <ele>5.569427</ele>
        <time>2024-09-22T07:32:08.000Z</time>
      </trkpt>
      <trkpt lat="41.047706" lon="-71.928224">
        <ele>5.993787</ele>
        <time>2024-09-22T07:32:15.000Z</time>
      </trkpt>
      <trkpt lat="41.047034" lon="-71.928184">
        <ele>6.335395</ele>
        <time>2024-09-22T07:32:22.000Z</time>
      </trkpt>
      <trkpt lat="41.045579" lon="-71.928224">
        <ele>7.176399</ele>
        <time>2024-09-22T07:32:38.000Z</time>
      </trkpt>
      <trkpt lat="41.045057" lon="-71.928198">
        <ele>7.515028</ele>
        <time>2024-09-22T07:32:44.000Z</time>
      </trkpt>
      <trkpt lat="41.044581" lon="-71.92809">
        <ele>7.827882</ele>
        <time>2024-09-22T07:32:49.000Z</time>
      </trkpt>
      <trkpt lat="41.044242" lon="-71.92789">
        <ele>7.974062</ele>
        <time>2024-09-22T07:32:53.000Z</time>
      </trkpt>
      <trkpt lat="41.044049" lon="-71.927775">
        <ele>8.049676</ele>
        <time>2024-09-22T07:32:55.000Z</time>
      </trkpt>
      <trkpt lat="41.043732" lon="-71.927538">
        <ele>8.183014</ele>
        <time>2024-09-22T07:32:59.000Z</time>
      </trkpt>
      <trkpt lat="41.043405" lon="-71.927301">
        <ele>8.317588</ele>
        <time>2024-09-22T07:33:03.000Z</time>
      </trkpt>
      <trkpt lat="41.042913" lon="-71.927025">
        <ele>8.489932</ele>
        <time>2024-09-22T07:33:09.000Z</time>
      </trkpt>
      <trkpt lat="41.042782" lon="-71.927003">
        <ele>8.434581</ele>
        <time>2024-09-22T07:33:10.000Z</time>
      </trkpt>
      <trkpt lat="41.042672" lon="-71.926986">
        <ele>8.384839</ele>
        <time>2024-09-22T07:33:11.000Z</time>
      </trkpt>
      <trkpt lat="41.042565" lon="-71.926934">
        <ele>8.332159</ele>
        <time>2024-09-22T07:33:12.000Z</time>
      </trkpt>
      <trkpt lat="41.042501" lon="-71.926855">
        <ele>8.286926</ele>
        <time>2024-09-22T07:33:13.000Z</time>
      </trkpt>
      <trkpt lat="41.042466" lon="-71.926721">
        <ele>8.241008</ele>
        <time>2024-09-22T07:33:14.000Z</time>
      </trkpt>
      <trkpt lat="41.042464" lon="-71.926615">
        <ele>8.202187</ele>
        <time>2024-09-22T07:33:15.000Z</time>
      </trkpt>
      <trkpt lat="41.042664" lon="-71.926011">
        <ele>7.968316</ele>
        <time>2024-09-22T07:33:21.000Z</time>
      </trkpt>
      <trkpt lat="41.043609" lon="-71.922803">
        <ele>6.014571</ele>
        <time>2024-09-22T07:33:50.000Z</time>
      </trkpt>
      <trkpt lat="41.04398" lon="-71.922142">
        <ele>5.879237</ele>
        <time>2024-09-22T07:33:57.000Z</time>
      </trkpt>
      <trkpt lat="41.044153" lon="-71.921881">
        <ele>5.82093</ele>
        <time>2024-09-22T07:34:00.000Z</time>
      </trkpt>
      <trkpt lat="41.044487" lon="-71.921427">
        <ele>5.715674</ele>
        <time>2024-09-22T07:34:05.000Z</time>
      </trkpt>
      <trkpt lat="41.044762" lon="-71.92095">
        <ele>5.624157</ele>
        <time>2024-09-22T07:34:10.000Z</time>
      </trkpt>
      <trkpt lat="41.045232" lon="-71.919846">
        <ele>5.446522</ele>
        <time>2024-09-22T07:34:21.000Z</time>
      </trkpt>
      <trkpt lat="41.045397" lon="-71.91921">
        <ele>5.354988</ele>
        <time>2024-09-22T07:34:27.000Z</time>
      </trkpt>
      <trkpt lat="41.046106" lon="-71.913944">
        <ele>2.931505</ele>
        <time>2024-09-22T07:35:12.000Z</time>
      </trkpt>
      <trkpt lat="41.046169" lon="-71.913189">
        <ele>3.025445</ele>
        <time>2024-09-22T07:35:18.000Z</time>
      </trkpt>
      <trkpt lat="41.046402" lon="-71.911699">
        <ele>3.332293</ele>
        <time>2024-09-22T07:35:31.000Z</time>
      </trkpt>
      <trkpt lat="41.046573" lon="-71.911012">
        <ele>3.747275</ele>
        <time>2024-09-22T07:35:37.000Z</time>
      </trkpt>
      <trkpt lat="41.046626" lon="-71.910822">
        <ele>3.865717</ele>
        <time>2024-09-22T07:35:39.000Z</time>
      </trkpt>
      <trkpt lat="41.046896" lon="-71.910077">
        <ele>4.341804</ele>
        <time>2024-09-22T07:35:46.000Z</time>
      </trkpt>
      <trkpt lat="41.047168" lon="-71.909482">
        <ele>4.681096</ele>
        <time>2024-09-22T07:35:52.000Z</time>
      </trkpt>
      <trkpt lat="41.047386" lon="-71.909063">
        <ele>4.864278</ele>
        <time>2024-09-22T07:35:56.000Z</time>
      </trkpt>
      <trkpt lat="41.047712" lon="-71.908611">
        <ele>5.091517</ele>
        <time>2024-09-22T07:36:01.000Z</time>
      </trkpt>
      <trkpt lat="41.048783" lon="-71.907091">
        <ele>5.87975</ele>
        <time>2024-09-22T07:36:18.000Z</time>
      </trkpt>
      <trkpt lat="41.049038" lon="-71.906693">
        <ele>6.091075</ele>
        <time>2024-09-22T07:36:22.000Z</time>
      </trkpt>
      <trkpt lat="41.0494" lon="-71.906141">
        <ele>6.388034</ele>
        <time>2024-09-22T07:36:28.000Z</time>
      </trkpt>
      <trkpt lat="41.050936" lon="-71.903068">
        <ele>10.209683</ele>
        <time>2024-09-22T07:36:59.000Z</time>
      </trkpt>
      <trkpt lat="41.051348" lon="-71.90226">
        <ele>11.374523</ele>
        <time>2024-09-22T07:37:07.000Z</time>
      </trkpt>
      <trkpt lat="41.05203" lon="-71.900898">
        <ele>13.111496</ele>
        <time>2024-09-22T07:37:21.000Z</time>
      </trkpt>
      <trkpt lat="41.052291" lon="-71.90044">
        <ele>13.733052</ele>
        <time>2024-09-22T07:37:26.000Z</time>
      </trkpt>
      <trkpt lat="41.052708" lon="-71.89991">
        <ele>13.861476</ele>
        <time>2024-09-22T07:37:32.000Z</time>
      </trkpt>
      <trkpt lat="41.053395" lon="-71.899155">
        <ele>13.511463</ele>
        <time>2024-09-22T07:37:42.000Z</time>
      </trkpt>
      <trkpt lat="41.054253" lon="-71.898275">
        <ele>13.361693</ele>
        <time>2024-09-22T07:37:54.000Z</time>
      </trkpt>
      <trkpt lat="41.054713" lon="-71.897825">
        <ele>13.4233</ele>
        <time>2024-09-22T07:38:00.000Z</time>
      </trkpt>
      <trkpt lat="41.055007" lon="-71.897572">
        <ele>13.460599</ele>
        <time>2024-09-22T07:38:04.000Z</time>
      </trkpt>
      <trkpt lat="41.055542" lon="-71.897244">
        <ele>14.540298</ele>
        <time>2024-09-22T07:38:11.000Z</time>
      </trkpt>
      <trkpt lat="41.056015" lon="-71.897013">
        <ele>16.569603</ele>
        <time>2024-09-22T07:38:17.000Z</time>
      </trkpt>
      <trkpt lat="41.057532" lon="-71.896517">
        <ele>22.513412</ele>
        <time>2024-09-22T07:38:34.000Z</time>
      </trkpt>
      <trkpt lat="41.058187" lon="-71.896261">
        <ele>24.778691</ele>
        <time>2024-09-22T07:38:42.000Z</time>
      </trkpt>
      <trkpt lat="41.058631" lon="-71.895993">
        <ele>26.422782</ele>
        <time>2024-09-22T07:38:47.000Z</time>
      </trkpt>
      <trkpt lat="41.059159" lon="-71.89562">
        <ele>26.030339</ele>
        <time>2024-09-22T07:38:54.000Z</time>
      </trkpt>
      <trkpt lat="41.059598" lon="-71.895226">
        <ele>25.313464</ele>
        <time>2024-09-22T07:39:00.000Z</time>
      </trkpt>
      <trkpt lat="41.060017" lon="-71.894735">
        <ele>24.557089</ele>
        <time>2024-09-22T07:39:06.000Z</time>
      </trkpt>
      <trkpt lat="41.060402" lon="-71.894199">
        <ele>23.112289</ele>
        <time>2024-09-22T07:39:12.000Z</time>
      </trkpt>
      <trkpt lat="41.06232" lon="-71.891403">
        <ele>14.103366</ele>
        <time>2024-09-22T07:39:44.000Z</time>
      </trkpt>
      <trkpt lat="41.062406" lon="-71.891306">
        <ele>13.768853</ele>
        <time>2024-09-22T07:39:45.000Z</time>
      </trkpt>
      <trkpt lat="41.062899" lon="-71.890553">
        <ele>12.153739</ele>
        <time>2024-09-22T07:39:53.000Z</time>
      </trkpt>
      <trkpt lat="41.064265" lon="-71.888076">
        <ele>9.570158</ele>
        <time>2024-09-22T07:40:19.000Z</time>
      </trkpt>
      <trkpt lat="41.068068" lon="-71.881132">
        <ele>12.589306</ele>
        <time>2024-09-22T07:41:31.000Z</time>
      </trkpt>
      <trkpt lat="41.068362" lon="-71.880447">
        <ele>12.989748</ele>
        <time>2024-09-22T07:41:38.000Z</time>
      </trkpt>
      <trkpt lat="41.06859" lon="-71.879721">
        <ele>13.391443</ele>
        <time>2024-09-22T07:41:45.000Z</time>
      </trkpt>
      <trkpt lat="41.068648" lon="-71.879436">
        <ele>13.539844</ele>
        <time>2024-09-22T07:41:47.000Z</time>
      </trkpt>
      <trkpt lat="41.068723" lon="-71.878993">
        <ele>13.985461</ele>
        <time>2024-09-22T07:41:51.000Z</time>
      </trkpt>
      <trkpt lat="41.06886" lon="-71.877107">
        <ele>16.293346</ele>
        <time>2024-09-22T07:42:07.000Z</time>
      </trkpt>
      <trkpt lat="41.069012" lon="-71.876244">
        <ele>17.526758</ele>
        <time>2024-09-22T07:42:14.000Z</time>
      </trkpt>
      <trkpt lat="41.069296" lon="-71.875404">
        <ele>18.892332</ele>
        <time>2024-09-22T07:42:22.000Z</time>
      </trkpt>
      <trkpt lat="41.06989" lon="-71.874076">
        <ele>20.234629</ele>
        <time>2024-09-22T07:42:35.000Z</time>
      </trkpt>
      <trkpt lat="41.070256" lon="-71.873103">
        <ele>20.498323</ele>
        <time>2024-09-22T07:42:44.000Z</time>
      </trkpt>
      <trkpt lat="41.070512" lon="-71.87224">
        <ele>20.425348</ele>
        <time>2024-09-22T07:42:52.000Z</time>
      </trkpt>
      <trkpt lat="41.070763" lon="-71.870986">
        <ele>19.742725</ele>
        <time>2024-09-22T07:43:03.000Z</time>
      </trkpt>
      <trkpt lat="41.070847" lon="-71.870248">
        <ele>19.398834</ele>
        <time>2024-09-22T07:43:09.000Z</time>
      </trkpt>
      <trkpt lat="41.0709" lon="-71.869246">
        <ele>19.729621</ele>
        <time>2024-09-22T07:43:17.000Z</time>
      </trkpt>
      <trkpt lat="41.07089" lon="-71.868263">
        <ele>20.057238</ele>
        <time>2024-09-22T07:43:25.000Z</time>
      </trkpt>
      <trkpt lat="41.070824" lon="-71.867555">
        <ele>20.100207</ele>
        <time>2024-09-22T07:43:31.000Z</time>
      </trkpt>
      <trkpt lat="41.070724" lon="-71.866641">
        <ele>19.923053</ele>
        <time>2024-09-22T07:43:39.000Z</time>
      </trkpt>
      <trkpt lat="41.070638" lon="-71.866181">
        <ele>19.831677</ele>
        <time>2024-09-22T07:43:43.000Z</time>
      </trkpt>
      <trkpt lat="41.07052" lon="-71.865748">
        <ele>19.74283</ele>
        <time>2024-09-22T07:43:47.000Z</time>
      </trkpt>
      <trkpt lat="41.070424" lon="-71.865354">
        <ele>19.323321</ele>
        <time>2024-09-22T07:43:50.000Z</time>
      </trkpt>
      <trkpt lat="41.069849" lon="-71.863517">
        <ele>16.261977</ele>
        <time>2024-09-22T07:44:07.000Z</time>
      </trkpt>
      <trkpt lat="41.069787" lon="-71.86327">
        <ele>15.851413</ele>
        <time>2024-09-22T07:44:09.000Z</time>
      </trkpt>
      <trkpt lat="41.069741" lon="-71.862968">
        <ele>15.350541</ele>
        <time>2024-09-22T07:44:12.000Z</time>
      </trkpt>
      <trkpt lat="41.069689" lon="-71.86239">
        <ele>14.412949</ele>
        <time>2024-09-22T07:44:17.000Z</time>
      </trkpt>
      <trkpt lat="41.069708" lon="-71.862096">
        <ele>13.94354</ele>
        <time>2024-09-22T07:44:19.000Z</time>
      </trkpt>
      <trkpt lat="41.069767" lon="-71.861478">
        <ele>12.914151</ele>
        <time>2024-09-22T07:44:24.000Z</time>
      </trkpt>
      <trkpt lat="41.069949" lon="-71.860645">
        <ele>11.667669</ele>
        <time>2024-09-22T07:44:31.000Z</time>
      </trkpt>
      <trkpt lat="41.070245" lon="-71.859885">
        <ele>10.618611</ele>
        <time>2024-09-22T07:44:38.000Z</time>
      </trkpt>
      <trkpt lat="41.070377" lon="-71.859616">
        <ele>10.22671</ele>
        <time>2024-09-22T07:44:41.000Z</time>
      </trkpt>
      <trkpt lat="41.070399" lon="-71.859606">
        <ele>10.189583</ele>
        <time>2024-09-22T07:44:41.000Z</time>
      </trkpt>
      <trkpt lat="41.070585" lon="-71.859332">
        <ele>9.746717</ele>
        <time>2024-09-22T07:44:44.000Z</time>
      </trkpt>
      <trkpt lat="41.070681" lon="-71.859195">
        <ele>9.521334</ele>
        <time>2024-09-22T07:44:46.000Z</time>
      </trkpt>
      <trkpt lat="41.070961" lon="-71.858921">
        <ele>9.256344</ele>
        <time>2024-09-22T07:44:50.000Z</time>
      </trkpt>
      <trkpt lat="41.071171" lon="-71.858763">
        <ele>9.284052</ele>
        <time>2024-09-22T07:44:53.000Z</time>
      </trkpt>
      <trkpt lat="41.071479" lon="-71.858628">
        <ele>9.325501</ele>
        <time>2024-09-22T07:44:57.000Z</time>
      </trkpt>
      <trkpt lat="41.07177" lon="-71.85862">
        <ele>9.360501</ele>
        <time>2024-09-22T07:45:00.000Z</time>
      </trkpt>
      <trkpt lat="41.072062" lon="-71.858714">
        <ele>9.398319</ele>
        <time>2024-09-22T07:45:03.000Z</time>
      </trkpt>
      <trkpt lat="41.072223" lon="-71.858806">
        <ele>9.419114</ele>
        <time>2024-09-22T07:45:05.000Z</time>
      </trkpt>
      <trkpt lat="41.072476" lon="-71.859068">
        <ele>9.481919</ele>
        <time>2024-09-22T07:45:09.000Z</time>
      </trkpt>
      <trkpt lat="41.072679" lon="-71.859506">
        <ele>10.026917</ele>
        <time>2024-09-22T07:45:13.000Z</time>
      </trkpt>
      <trkpt lat="41.072728" lon="-71.859767">
        <ele>10.303038</ele>
        <time>2024-09-22T07:45:15.000Z</time>
      </trkpt>
      <trkpt lat="41.072754" lon="-71.859902">
        <ele>10.447791</ele>
        <time>2024-09-22T07:45:16.000Z</time>
      </trkpt>
      <trkpt lat="41.072773" lon="-71.859992">
        <ele>10.559329</ele>
        <time>2024-09-22T07:45:17.000Z</time>
      </trkpt>
      <trkpt lat="41.072807" lon="-71.860505">
        <ele>11.086177</ele>
        <time>2024-09-22T07:45:21.000Z</time>
      </trkpt>
      <trkpt lat="41.072797" lon="-71.86063">
        <ele>11.222828</ele>
        <time>2024-09-22T07:45:22.000Z</time>
      </trkpt>
      <trkpt lat="41.072774" lon="-71.860972">
        <ele>11.581037</ele>
        <time>2024-09-22T07:45:25.000Z</time>
      </trkpt>
      <trkpt lat="41.072689" lon="-71.861405">
        <ele>12.119015</ele>
        <time>2024-09-22T07:45:29.000Z</time>
      </trkpt>
      <trkpt lat="41.072617" lon="-71.861612">
        <ele>12.500704</ele>
        <time>2024-09-22T07:45:31.000Z</time>
      </trkpt>
      <trkpt lat="41.0725" lon="-71.861859">
        <ele>12.976082</ele>
        <time>2024-09-22T07:45:33.000Z</time>
      </trkpt>
      <trkpt lat="41.07239" lon="-71.86204">
        <ele>13.366834</ele>
        <time>2024-09-22T07:45:35.000Z</time>
      </trkpt>
      <trkpt lat="41.072388" lon="-71.862063">
        <ele>13.409985</ele>
        <time>2024-09-22T07:45:35.000Z</time>
      </trkpt>
      <trkpt lat="41.071639" lon="-71.862993">
        <ele>15.679463</ele>
        <time>2024-09-22T07:45:46.000Z</time>
      </trkpt>
      <trkpt lat="41.071355" lon="-71.863455">
        <ele>16.667771</ele>
        <time>2024-09-22T07:45:51.000Z</time>
      </trkpt>
      <trkpt lat="41.071248" lon="-71.863685">
        <ele>17.142859</ele>
        <time>2024-09-22T07:45:53.000Z</time>
      </trkpt>
      <trkpt lat="41.071021" lon="-71.864257">
        <ele>18.216845</ele>
        <time>2024-09-22T07:45:58.000Z</time>
      </trkpt>
      <trkpt lat="41.070859" lon="-71.864834">
        <ele>19.265438</ele>
        <time>2024-09-22T07:46:03.000Z</time>
      </trkpt>
      <trkpt lat="41.070772" lon="-71.865272">
        <ele>19.966565</ele>
        <time>2024-09-22T07:46:07.000Z</time>
      </trkpt>
      <trkpt lat="41.070715" lon="-71.865737">
        <ele>20.066988</ele>
        <time>2024-09-22T07:46:11.000Z</time>
      </trkpt>
      <trkpt lat="41.070708" lon="-71.866152">
        <ele>20.159108</ele>
        <time>2024-09-22T07:46:14.000Z</time>
      </trkpt>
      <trkpt lat="41.070718" lon="-71.866641">
        <ele>20.267694</ele>
        <time>2024-09-22T07:46:18.000Z</time>
      </trkpt>
      <trkpt lat="41.070821" lon="-71.867547">
        <ele>20.468062</ele>
        <time>2024-09-22T07:46:26.000Z</time>
      </trkpt>
      <trkpt lat="41.07088" lon="-71.868255">
        <ele>20.166539</ele>
        <time>2024-09-22T07:46:32.000Z</time>
      </trkpt>
      <trkpt lat="41.070904" lon="-71.869239">
        <ele>19.697514</ele>
        <time>2024-09-22T07:46:40.000Z</time>
      </trkpt>
      <trkpt lat="41.070855" lon="-71.870244">
        <ele>19.46824</ele>
        <time>2024-09-22T07:46:48.000Z</time>
      </trkpt>
      <trkpt lat="41.070762" lon="-71.870979">
        <ele>19.819629</ele>
        <time>2024-09-22T07:46:54.000Z</time>
      </trkpt>
      <trkpt lat="41.070518" lon="-71.872239">
        <ele>20.431573</ele>
        <time>2024-09-22T07:47:05.000Z</time>
      </trkpt>
      <trkpt lat="41.070249" lon="-71.873117">
        <ele>20.422775</ele>
        <time>2024-09-22T07:47:13.000Z</time>
      </trkpt>
      <trkpt lat="41.069881" lon="-71.874062">
        <ele>20.365735</ele>
        <time>2024-09-22T07:47:22.000Z</time>
      </trkpt>
      <trkpt lat="41.069295" lon="-71.875395">
        <ele>18.81464</ele>
        <time>2024-09-22T07:47:35.000Z</time>
      </trkpt>
      <trkpt lat="41.069018" lon="-71.876247">
        <ele>17.52585</ele>
        <time>2024-09-22T07:47:43.000Z</time>
      </trkpt>
      <trkpt lat="41.068854" lon="-71.877096">
        <ele>16.355847</ele>
        <time>2024-09-22T07:47:50.000Z</time>
      </trkpt>
      <trkpt lat="41.068726" lon="-71.878986">
        <ele>13.896113</ele>
        <time>2024-09-22T07:48:06.000Z</time>
      </trkpt>
      <trkpt lat="41.068659" lon="-71.879438">
        <ele>13.628535</ele>
        <time>2024-09-22T07:48:10.000Z</time>
      </trkpt>
      <trkpt lat="41.06859" lon="-71.879716">
        <ele>13.460918</ele>
        <time>2024-09-22T07:48:12.000Z</time>
      </trkpt>
      <trkpt lat="41.068375" lon="-71.880447">
        <ele>13.007232</ele>
        <time>2024-09-22T07:48:19.000Z</time>
      </trkpt>
      <trkpt lat="41.068074" lon="-71.881121">
        <ele>12.554943</ele>
        <time>2024-09-22T07:48:26.000Z</time>
      </trkpt>
      <trkpt lat="41.064263" lon="-71.888082">
        <ele>9.557822</ele>
        <time>2024-09-22T07:49:38.000Z</time>
      </trkpt>
      <trkpt lat="41.062902" lon="-71.890554">
        <ele>12.057318</ele>
        <time>2024-09-22T07:50:04.000Z</time>
      </trkpt>
      <trkpt lat="41.062399" lon="-71.891305">
        <ele>13.892157</ele>
        <time>2024-09-22T07:50:12.000Z</time>
      </trkpt>
      <trkpt lat="41.062336" lon="-71.891404">
        <ele>14.208597</ele>
        <time>2024-09-22T07:50:13.000Z</time>
      </trkpt>
      <trkpt lat="41.060413" lon="-71.894205">
        <ele>23.16066</ele>
        <time>2024-09-22T07:50:45.000Z</time>
      </trkpt>
      <trkpt lat="41.06002" lon="-71.89474">
        <ele>24.365002</ele>
        <time>2024-09-22T07:50:51.000Z</time>
      </trkpt>
      <trkpt lat="41.059587" lon="-71.895222">
        <ele>25.392184</ele>
        <time>2024-09-22T07:50:57.000Z</time>
      </trkpt>
      <trkpt lat="41.059166" lon="-71.895624">
        <ele>26.365732</ele>
        <time>2024-09-22T07:51:03.000Z</time>
      </trkpt>
      <trkpt lat="41.058632" lon="-71.896001">
        <ele>25.956065</ele>
        <time>2024-09-22T07:51:10.000Z</time>
      </trkpt>
      <trkpt lat="41.058186" lon="-71.896271">
        <ele>24.58437</ele>
        <time>2024-09-22T07:51:15.000Z</time>
      </trkpt>
      <trkpt lat="41.057544" lon="-71.896506">
        <ele>22.69439</ele>
        <time>2024-09-22T07:51:22.000Z</time>
      </trkpt>
      <trkpt lat="41.056006" lon="-71.897012">
        <ele>16.36286</ele>
        <time>2024-09-22T07:51:40.000Z</time>
      </trkpt>
      <trkpt lat="41.055528" lon="-71.897247">
        <ele>14.178379</ele>
        <time>2024-09-22T07:51:46.000Z</time>
      </trkpt>
      <trkpt lat="41.055023" lon="-71.897578">
        <ele>13.767875</ele>
        <time>2024-09-22T07:51:52.000Z</time>
      </trkpt>
      <trkpt lat="41.054717" lon="-71.89783">
        <ele>13.570417</ele>
        <time>2024-09-22T07:51:56.000Z</time>
      </trkpt>
      <trkpt lat="41.054244" lon="-71.898271">
        <ele>13.244315</ele>
        <time>2024-09-22T07:52:02.000Z</time>
      </trkpt>
      <trkpt lat="41.053407" lon="-71.899164">
        <ele>13.519651</ele>
        <time>2024-09-22T07:52:14.000Z</time>
      </trkpt>
      <trkpt lat="41.05271" lon="-71.899911">
        <ele>14.041142</ele>
        <time>2024-09-22T07:52:24.000Z</time>
      </trkpt>
      <trkpt lat="41.05229" lon="-71.900429">
        <ele>13.587042</ele>
        <time>2024-09-22T07:52:30.000Z</time>
      </trkpt>
      <trkpt lat="41.052029" lon="-71.900891">
        <ele>13.041451</ele>
        <time>2024-09-22T07:52:35.000Z</time>
      </trkpt>
      <trkpt lat="41.051349" lon="-71.902247">
        <ele>11.382985</ele>
        <time>2024-09-22T07:52:49.000Z</time>
      </trkpt>
      <trkpt lat="41.050937" lon="-71.903084">
        <ele>10.123077</ele>
        <time>2024-09-22T07:52:57.000Z</time>
      </trkpt>
      <trkpt lat="41.049392" lon="-71.90614">
        <ele>5.945465</ele>
        <time>2024-09-22T07:53:28.000Z</time>
      </trkpt>
      <trkpt lat="41.049031" lon="-71.906696">
        <ele>5.550803</ele>
        <time>2024-09-22T07:53:34.000Z</time>
      </trkpt>
      <trkpt lat="41.049158" lon="-71.906891">
        <ele>5.412479</ele>
        <time>2024-09-22T07:53:36.000Z</time>
      </trkpt>
      <trkpt lat="41.049245" lon="-71.906978">
        <ele>5.340397</ele>
        <time>2024-09-22T07:53:37.000Z</time>
      </trkpt>
      <trkpt lat="41.049404" lon="-71.906944">
        <ele>5.224249</ele>
        <time>2024-09-22T07:53:39.000Z</time>
      </trkpt>
      <trkpt lat="41.051301" lon="-71.906612">
        <ele>5.333492</ele>
        <time>2024-09-22T07:54:00.000Z</time>
      </trkpt>
      <trkpt lat="41.052372" lon="-71.906443">
        <ele>5.953025</ele>
        <time>2024-09-22T07:54:12.000Z</time>
      </trkpt>
      <trkpt lat="41.053089" lon="-71.906328">
        <ele>6.481525</ele>
        <time>2024-09-22T07:54:20.000Z</time>
      </trkpt>
      <trkpt lat="41.053523" lon="-71.906243">
        <ele>6.801623</ele>
        <time>2024-09-22T07:54:25.000Z</time>
      </trkpt>
      <trkpt lat="41.054439" lon="-71.906111">
        <ele>6.976115</ele>
        <time>2024-09-22T07:54:35.000Z</time>
      </trkpt>
      <trkpt lat="41.054816" lon="-71.906012">
        <ele>7.048703</ele>
        <time>2024-09-22T07:54:39.000Z</time>
      </trkpt>
      <trkpt lat="41.055494" lon="-71.905693">
        <ele>7.116078</ele>
        <time>2024-09-22T07:54:47.000Z</time>
      </trkpt>
      <trkpt lat="41.055827" lon="-71.905576">
        <ele>7.077751</ele>
        <time>2024-09-22T07:54:51.000Z</time>
      </trkpt>
      <trkpt lat="41.055983" lon="-71.905564">
        <ele>7.061351</ele>
        <time>2024-09-22T07:54:53.000Z</time>
      </trkpt>
      <trkpt lat="41.05627" lon="-71.905581">
        <ele>7.027607</ele>
        <time>2024-09-22T07:54:56.000Z</time>
      </trkpt>
      <trkpt lat="41.056914" lon="-71.905724">
        <ele>6.954187</ele>
        <time>2024-09-22T07:55:03.000Z</time>
      </trkpt>
      <trkpt lat="41.057323" lon="-71.905753">
        <ele>6.797003</ele>
        <time>2024-09-22T07:55:08.000Z</time>
      </trkpt>
      <trkpt lat="41.057684" lon="-71.905756">
        <ele>6.608644</ele>
        <time>2024-09-22T07:55:12.000Z</time>
      </trkpt>
      <trkpt lat="41.058319" lon="-71.905627">
        <ele>6.26729</ele>
        <time>2024-09-22T07:55:19.000Z</time>
      </trkpt>
      <trkpt lat="41.058876" lon="-71.905555">
        <ele>5.969338</ele>
        <time>2024-09-22T07:55:25.000Z</time>
      </trkpt>
      <trkpt lat="41.059192" lon="-71.905589">
        <ele>5.761019</ele>
        <time>2024-09-22T07:55:29.000Z</time>
      </trkpt>
      <trkpt lat="41.059527" lon="-71.905677">
        <ele>5.543806</ele>
        <time>2024-09-22T07:55:33.000Z</time>
      </trkpt>
      <trkpt lat="41.05984" lon="-71.905805">
        <ele>5.333073</ele>
        <time>2024-09-22T07:55:37.000Z</time>
      </trkpt>
      <trkpt lat="41.060122" lon="-71.905974">
        <ele>5.136758</ele>
        <time>2024-09-22T07:55:40.000Z</time>
      </trkpt>
      <trkpt lat="41.060789" lon="-71.906478">
        <ele>4.775512</ele>
        <time>2024-09-22T07:55:49.000Z</time>
      </trkpt>
      <trkpt lat="41.061055" lon="-71.906761">
        <ele>4.708322</ele>
        <time>2024-09-22T07:55:53.000Z</time>
      </trkpt>
      <trkpt lat="41.061372" lon="-71.907205">
        <ele>4.619874</ele>
        <time>2024-09-22T07:55:58.000Z</time>
      </trkpt>
      <trkpt lat="41.061839" lon="-71.908154">
        <ele>4.539462</ele>
        <time>2024-09-22T07:56:08.000Z</time>
      </trkpt>
      <trkpt lat="41.06221" lon="-71.909007">
        <ele>4.795906</ele>
        <time>2024-09-22T07:56:16.000Z</time>
      </trkpt>
      <trkpt lat="41.063267" lon="-71.911352">
        <ele>5.527635</ele>
        <time>2024-09-22T07:56:39.000Z</time>
      </trkpt>
      <trkpt lat="41.063513" lon="-71.911867">
        <ele>5.695867</ele>
        <time>2024-09-22T07:56:44.000Z</time>
      </trkpt>
      <trkpt lat="41.063694" lon="-71.91223">
        <ele>5.828859</ele>
        <time>2024-09-22T07:56:48.000Z</time>
      </trkpt>
      <trkpt lat="41.063796" lon="-71.912399">
        <ele>5.906256</ele>
        <time>2024-09-22T07:56:50.000Z</time>
      </trkpt>
      <trkpt lat="41.063843" lon="-71.912462">
        <ele>5.935413</ele>
        <time>2024-09-22T07:56:51.000Z</time>
      </trkpt>
      <trkpt lat="41.064002" lon="-71.91269">
        <ele>6.037457</ele>
        <time>2024-09-22T07:56:54.000Z</time>
      </trkpt>
      <trkpt lat="41.064156" lon="-71.912865">
        <ele>6.132403</ele>
        <time>2024-09-22T07:56:56.000Z</time>
      </trkpt>
      <trkpt lat="41.064497" lon="-71.913182">
        <ele>6.324603</ele>
        <time>2024-09-22T07:57:01.000Z</time>
      </trkpt>
      <trkpt lat="41.065065" lon="-71.913544">
        <ele>6.608038</ele>
        <time>2024-09-22T07:57:08.000Z</time>
      </trkpt>
      <trkpt lat="41.065356" lon="-71.913689">
        <ele>6.723997</ele>
        <time>2024-09-22T07:57:11.000Z</time>
      </trkpt>
      <trkpt lat="41.065582" lon="-71.913795">
        <ele>6.820148</ele>
        <time>2024-09-22T07:57:14.000Z</time>
      </trkpt>
      <trkpt lat="41.065872" lon="-71.913882">
        <ele>6.933672</ele>
        <time>2024-09-22T07:57:17.000Z</time>
      </trkpt>
      <trkpt lat="41.066984" lon="-71.913981">
        <ele>7.247414</ele>
        <time>2024-09-22T07:57:29.000Z</time>
      </trkpt>
      <trkpt lat="41.067408" lon="-71.914049">
        <ele>7.201987</ele>
        <time>2024-09-22T07:57:34.000Z</time>
      </trkpt>
      <trkpt lat="41.067682" lon="-71.91412">
        <ele>7.172764</ele>
        <time>2024-09-22T07:57:37.000Z</time>
      </trkpt>
      <trkpt lat="41.068069" lon="-71.914281">
        <ele>7.129697</ele>
        <time>2024-09-22T07:57:42.000Z</time>
      </trkpt>
      <trkpt lat="41.068336" lon="-71.914444">
        <ele>7.099268</ele>
        <time>2024-09-22T07:57:45.000Z</time>
      </trkpt>
      <trkpt lat="41.069054" lon="-71.914952">
        <ele>6.478675</ele>
        <time>2024-09-22T07:57:54.000Z</time>
      </trkpt>
      <trkpt lat="41.069834" lon="-71.915626">
        <ele>5.603493</ele>
        <time>2024-09-22T07:58:04.000Z</time>
      </trkpt>
      <trkpt lat="41.070222" lon="-71.916061">
        <ele>4.979186</ele>
        <time>2024-09-22T07:58:10.000Z</time>
      </trkpt>
      <trkpt lat="41.070517" lon="-71.916463">
        <ele>4.354627</ele>
        <time>2024-09-22T07:58:15.000Z</time>
      </trkpt>
      <trkpt lat="41.071163" lon="-71.917407">
        <ele>2.913533</ele>
        <time>2024-09-22T07:58:26.000Z</time>
      </trkpt>
      <trkpt lat="41.07132" lon="-71.917686">
        <ele>2.608393</ele>
        <time>2024-09-22T07:58:29.000Z</time>
      </trkpt>
      <trkpt lat="41.071366" lon="-71.917826">
        <ele>2.502422</ele>
        <time>2024-09-22T07:58:30.000Z</time>
      </trkpt>
      <trkpt lat="41.071409" lon="-71.918012">
        <ele>2.367161</ele>
        <time>2024-09-22T07:58:32.000Z</time>
      </trkpt>
      <trkpt lat="41.071408" lon="-71.9187">
        <ele>1.895677</ele>
        <time>2024-09-22T07:58:38.000Z</time>
      </trkpt>
      <trkpt lat="41.071416" lon="-71.918927">
        <ele>1.741231</ele>
        <time>2024-09-22T07:58:40.000Z</time>
      </trkpt>
      <trkpt lat="41.071482" lon="-71.919171">
        <ele>1.565993</ele>
        <time>2024-09-22T07:58:42.000Z</time>
      </trkpt>
      <trkpt lat="41.0721" lon="-71.920632">
        <ele>1.052218</ele>
        <time>2024-09-22T07:58:56.000Z</time>
      </trkpt>
      <trkpt lat="41.072226" lon="-71.921034">
        <ele>1.026664</ele>
        <time>2024-09-22T07:59:00.000Z</time>
      </trkpt>
      <trkpt lat="41.07237" lon="-71.921898">
        <ele>0.975414</ele>
        <time>2024-09-22T07:59:07.000Z</time>
      </trkpt>
      <trkpt lat="41.072715" lon="-71.924166">
        <ele>0.998407</ele>
        <time>2024-09-22T07:59:26.000Z</time>
      </trkpt>
      <trkpt lat="41.072763" lon="-71.924406">
        <ele>1.002294</ele>
        <time>2024-09-22T07:59:28.000Z</time>
      </trkpt>
      <trkpt lat="41.073046" lon="-71.92552">
        <ele>1.02966</ele>
        <time>2024-09-22T07:59:38.000Z</time>
      </trkpt>
      <trkpt lat="41.073064" lon="-71.925557">
        <ele>1.030774</ele>
        <time>2024-09-22T07:59:38.000Z</time>
      </trkpt>
      <trkpt lat="41.073223" lon="-71.926119">
        <ele>1.04475</ele>
        <time>2024-09-22T07:59:43.000Z</time>
      </trkpt>
      <trkpt lat="41.073495" lon="-71.9269">
        <ele>1.074029</ele>
        <time>2024-09-22T07:59:50.000Z</time>
      </trkpt>
      <trkpt lat="41.074605" lon="-71.929567">
        <ele>1.279658</ele>
        <time>2024-09-22T08:00:16.000Z</time>
      </trkpt>
      <trkpt lat="41.075016" lon="-71.930763">
        <ele>1.421757</ele>
        <time>2024-09-22T08:00:27.000Z</time>
      </trkpt>
      <trkpt lat="41.076077" lon="-71.933592">
        <ele>1.960392</ele>
        <time>2024-09-22T08:00:53.000Z</time>
      </trkpt>
      <trkpt lat="41.076126" lon="-71.933707">
        <ele>1.964949</ele>
        <time>2024-09-22T08:00:54.000Z</time>
      </trkpt>
      <trkpt lat="41.076421" lon="-71.934574">
        <ele>1.994767</ele>
        <time>2024-09-22T08:01:02.000Z</time>
      </trkpt>
      <trkpt lat="41.076569" lon="-71.934753">
        <ele>2.003312</ele>
        <time>2024-09-22T08:01:04.000Z</time>
      </trkpt>
      <trkpt lat="41.076684" lon="-71.934844">
        <ele>2.00864</ele>
        <time>2024-09-22T08:01:05.000Z</time>
      </trkpt>
      <trkpt lat="41.076814" lon="-71.934881">
        <ele>2.006748</ele>
        <time>2024-09-22T08:01:06.000Z</time>
      </trkpt>
      <trkpt lat="41.077291" lon="-71.935065">
        <ele>1.972025</ele>
        <time>2024-09-22T08:01:12.000Z</time>
      </trkpt>
      <trkpt lat="41.077394" lon="-71.935091">
        <ele>1.963918</ele>
        <time>2024-09-22T08:01:13.000Z</time>
      </trkpt>
      <trkpt lat="41.077495" lon="-71.93523">
        <ele>1.952848</ele>
        <time>2024-09-22T08:01:15.000Z</time>
      </trkpt>
      <trkpt lat="41.077492" lon="-71.935928">
        <ele>1.91484</ele>
        <time>2024-09-22T08:01:21.000Z</time>
      </trkpt>
      <trkpt lat="41.077503" lon="-71.936149">
        <ele>1.902576</ele>
        <time>2024-09-22T08:01:23.000Z</time>
      </trkpt>
      <trkpt lat="41.077324" lon="-71.936151">
        <ele>1.890284</ele>
        <time>2024-09-22T08:01:25.000Z</time>
      </trkpt>
      <trkpt lat="41.077323" lon="-71.935653">
        <ele>1.913055</ele>
        <time>2024-09-22T08:01:29.000Z</time>
      </trkpt>
      <trkpt lat="41.077314" lon="-71.935204">
        <ele>1.955897</ele>
        <time>2024-09-22T08:01:33.000Z</time>
      </trkpt>
      <trkpt lat="41.077276" lon="-71.935067">
        <ele>1.970792</ele>
        <time>2024-09-22T08:01:34.000Z</time>
      </trkpt>
      <trkpt lat="41.076821" lon="-71.934885">
        <ele>2.031687</ele>
        <time>2024-09-22T08:01:39.000Z</time>
      </trkpt>
      <trkpt lat="41.076692" lon="-71.934834">
        <ele>2.049562</ele>
        <time>2024-09-22T08:01:40.000Z</time>
      </trkpt>
      <trkpt lat="41.076573" lon="-71.934757">
        <ele>2.065746</ele>
        <time>2024-09-22T08:01:41.000Z</time>
      </trkpt>
      <trkpt lat="41.076432" lon="-71.934562">
        <ele>2.091702</ele>
        <time>2024-09-22T08:01:43.000Z</time>
      </trkpt>
      <trkpt lat="41.076118" lon="-71.933706">
        <ele>2.001799</ele>
        <time>2024-09-22T08:01:51.000Z</time>
      </trkpt>
      <trkpt lat="41.076065" lon="-71.93359">
        <ele>1.981251</ele>
        <time>2024-09-22T08:01:52.000Z</time>
      </trkpt>
      <trkpt lat="41.075014" lon="-71.930766">
        <ele>1.443712</ele>
        <time>2024-09-22T08:02:18.000Z</time>
      </trkpt>
      <trkpt lat="41.074606" lon="-71.92956">
        <ele>1.262488</ele>
        <time>2024-09-22T08:02:29.000Z</time>
      </trkpt>
      <trkpt lat="41.073479" lon="-71.926907">
        <ele>1.077837</ele>
        <time>2024-09-22T08:02:55.000Z</time>
      </trkpt>
      <trkpt lat="41.073215" lon="-71.926123">
        <ele>1.034433</ele>
        <time>2024-09-22T08:03:02.000Z</time>
      </trkpt>
      <trkpt lat="41.073061" lon="-71.925557">
        <ele>1.01771</ele>
        <time>2024-09-22T08:03:07.000Z</time>
      </trkpt>
      <trkpt lat="41.073046" lon="-71.925518">
        <ele>1.017294</ele>
        <time>2024-09-22T08:03:07.000Z</time>
      </trkpt>
      <trkpt lat="41.072764" lon="-71.92439">
        <ele>1.007089</ele>
        <time>2024-09-22T08:03:17.000Z</time>
      </trkpt>
      <trkpt lat="41.072718" lon="-71.924172">
        <ele>1.005112</ele>
        <time>2024-09-22T08:03:19.000Z</time>
      </trkpt>
      <trkpt lat="41.072366" lon="-71.921902">
        <ele>0.964855</ele>
        <time>2024-09-22T08:03:38.000Z</time>
      </trkpt>
      <trkpt lat="41.072226" lon="-71.921043">
        <ele>0.992648</ele>
        <time>2024-09-22T08:03:45.000Z</time>
      </trkpt>
      <trkpt lat="41.072101" lon="-71.920623">
        <ele>1.072926</ele>
        <time>2024-09-22T08:03:49.000Z</time>
      </trkpt>
      <trkpt lat="41.071487" lon="-71.919178">
        <ele>1.37764</ele>
        <time>2024-09-22T08:04:03.000Z</time>
      </trkpt>
      <trkpt lat="41.071418" lon="-71.918944">
        <ele>1.570564</ele>
        <time>2024-09-22T08:04:05.000Z</time>
      </trkpt>
      <trkpt lat="41.071394" lon="-71.918714">
        <ele>1.775755</ele>
        <time>2024-09-22T08:04:07.000Z</time>
      </trkpt>
      <trkpt lat="41.0714" lon="-71.918011">
        <ele>2.402255</ele>
        <time>2024-09-22T08:04:13.000Z</time>
      </trkpt>
      <trkpt lat="41.071373" lon="-71.917823">
        <ele>2.581984</ele>
        <time>2024-09-22T08:04:15.000Z</time>
      </trkpt>
      <trkpt lat="41.071312" lon="-71.917686">
        <ele>2.722781</ele>
        <time>2024-09-22T08:04:16.000Z</time>
      </trkpt>
      <trkpt lat="41.071152" lon="-71.917421">
        <ele>3.033951</ele>
        <time>2024-09-22T08:04:19.000Z</time>
      </trkpt>
      <trkpt lat="41.07052" lon="-71.916463">
        <ele>4.314579</ele>
        <time>2024-09-22T08:04:30.000Z</time>
      </trkpt>
      <trkpt lat="41.070212" lon="-71.916073">
        <ele>4.910432</ele>
        <time>2024-09-22T08:04:35.000Z</time>
      </trkpt>
      <trkpt lat="41.069839" lon="-71.915631">
        <ele>5.616641</ele>
        <time>2024-09-22T08:04:41.000Z</time>
      </trkpt>
      <trkpt lat="41.069054" lon="-71.914954">
        <ele>6.491547</ele>
        <time>2024-09-22T08:04:51.000Z</time>
      </trkpt>
      <trkpt lat="41.068334" lon="-71.914443">
        <ele>7.021389</ele>
        <time>2024-09-22T08:05:00.000Z</time>
      </trkpt>
      <trkpt lat="41.068075" lon="-71.914289">
        <ele>7.209042</ele>
        <time>2024-09-22T08:05:03.000Z</time>
      </trkpt>
      <trkpt lat="41.06768" lon="-71.914126">
        <ele>7.244286</ele>
        <time>2024-09-22T08:05:08.000Z</time>
      </trkpt>
      <trkpt lat="41.067405" lon="-71.914049">
        <ele>7.220908</ele>
        <time>2024-09-22T08:05:11.000Z</time>
      </trkpt>
      <trkpt lat="41.066977" lon="-71.913978">
        <ele>7.184568</ele>
        <time>2024-09-22T08:05:16.000Z</time>
      </trkpt>
      <trkpt lat="41.065875" lon="-71.913889">
        <ele>6.969469</ele>
        <time>2024-09-22T08:05:28.000Z</time>
      </trkpt>
      <trkpt lat="41.065595" lon="-71.913789">
        <ele>6.836887</ele>
        <time>2024-09-22T08:05:31.000Z</time>
      </trkpt>
      <trkpt lat="41.065344" lon="-71.913678">
        <ele>6.724627</ele>
        <time>2024-09-22T08:05:34.000Z</time>
      </trkpt>
      <trkpt lat="41.06507" lon="-71.913546">
        <ele>6.589196</ele>
        <time>2024-09-22T08:05:37.000Z</time>
      </trkpt>
      <trkpt lat="41.064495" lon="-71.913169">
        <ele>6.305071</ele>
        <time>2024-09-22T08:05:44.000Z</time>
      </trkpt>
      <trkpt lat="41.064157" lon="-71.912872">
        <ele>6.126601</ele>
        <time>2024-09-22T08:05:49.000Z</time>
      </trkpt>
      <trkpt lat="41.063985" lon="-71.912674">
        <ele>6.038459</ele>
        <time>2024-09-22T08:05:52.000Z</time>
      </trkpt>
      <trkpt lat="41.063841" lon="-71.912469">
        <ele>5.943696</ele>
        <time>2024-09-22T08:05:54.000Z</time>
      </trkpt>
      <trkpt lat="41.063795" lon="-71.912414">
        <ele>5.916619</ele>
        <time>2024-09-22T08:05:55.000Z</time>
      </trkpt>
      <trkpt lat="41.063686" lon="-71.912238">
        <ele>5.844758</ele>
        <time>2024-09-22T08:05:57.000Z</time>
      </trkpt>
      <trkpt lat="41.063513" lon="-71.911881">
        <ele>5.706286</ele>
        <time>2024-09-22T08:06:01.000Z</time>
      </trkpt>
      <trkpt lat="41.063268" lon="-71.911348">
        <ele>5.516627</ele>
        <time>2024-09-22T08:06:06.000Z</time>
      </trkpt>
      <trkpt lat="41.062224" lon="-71.909008">
        <ele>4.814128</ele>
        <time>2024-09-22T08:06:29.000Z</time>
      </trkpt>
      <trkpt lat="41.061825" lon="-71.908165">
        <ele>4.626709</ele>
        <time>2024-09-22T08:06:37.000Z</time>
      </trkpt>
      <trkpt lat="41.061376" lon="-71.907191">
        <ele>4.507198</ele>
        <time>2024-09-22T08:06:47.000Z</time>
      </trkpt>
      <trkpt lat="41.061054" lon="-71.906776">
        <ele>4.684843</ele>
        <time>2024-09-22T08:06:52.000Z</time>
      </trkpt>
      <trkpt lat="41.06079" lon="-71.906491">
        <ele>4.8198</ele>
        <time>2024-09-22T08:06:56.000Z</time>
      </trkpt>
      <trkpt lat="41.060117" lon="-71.905977">
        <ele>5.120657</ele>
        <time>2024-09-22T08:07:05.000Z</time>
      </trkpt>
      <trkpt lat="41.059844" lon="-71.905805">
        <ele>5.30271</ele>
        <time>2024-09-22T08:07:08.000Z</time>
      </trkpt>
      <trkpt lat="41.059526" lon="-71.905668">
        <ele>5.521713</ele>
        <time>2024-09-22T08:07:12.000Z</time>
      </trkpt>
      <trkpt lat="41.059202" lon="-71.905577">
        <ele>5.747437</ele>
        <time>2024-09-22T08:07:16.000Z</time>
      </trkpt>
      <trkpt lat="41.058876" lon="-71.905564">
        <ele>5.963925</ele>
        <time>2024-09-22T08:07:20.000Z</time>
      </trkpt>
      <trkpt lat="41.058317" lon="-71.905634">
        <ele>6.338741</ele>
        <time>2024-09-22T08:07:26.000Z</time>
      </trkpt>
      <trkpt lat="41.057674" lon="-71.905754">
        <ele>6.603348</ele>
        <time>2024-09-22T08:07:33.000Z</time>
      </trkpt>
      <trkpt lat="41.057319" lon="-71.905766">
        <ele>6.744869</ele>
        <time>2024-09-22T08:07:37.000Z</time>
      </trkpt>
      <trkpt lat="41.056914" lon="-71.905727">
        <ele>6.903352</ele>
        <time>2024-09-22T08:07:42.000Z</time>
      </trkpt>
      <trkpt lat="41.056282" lon="-71.905585">
        <ele>7.068377</ele>
        <time>2024-09-22T08:07:49.000Z</time>
      </trkpt>
      <trkpt lat="41.055983" lon="-71.905563">
        <ele>7.069565</ele>
        <time>2024-09-22T08:07:52.000Z</time>
      </trkpt>
      <trkpt lat="41.055831" lon="-71.905574">
        <ele>7.070151</ele>
        <time>2024-09-22T08:07:54.000Z</time>
      </trkpt>
      <trkpt lat="41.055495" lon="-71.905698">
        <ele>7.071507</ele>
        <time>2024-09-22T08:07:58.000Z</time>
      </trkpt>
      <trkpt lat="41.054814" lon="-71.906015">
        <ele>7.07438</ele>
        <time>2024-09-22T08:08:06.000Z</time>
      </trkpt>
      <trkpt lat="41.054442" lon="-71.90611">
        <ele>6.97574</ele>
        <time>2024-09-22T08:08:10.000Z</time>
      </trkpt>
      <trkpt lat="41.053529" lon="-71.906253">
        <ele>6.698785</ele>
        <time>2024-09-22T08:08:20.000Z</time>
      </trkpt>
      <trkpt lat="41.053087" lon="-71.906312">
        <ele>6.564384</ele>
        <time>2024-09-22T08:08:25.000Z</time>
      </trkpt>
      <trkpt lat="41.052363" lon="-71.906433">
        <ele>6.041329</ele>
        <time>2024-09-22T08:08:33.000Z</time>
      </trkpt>
      <trkpt lat="41.051298" lon="-71.906617">
        <ele>5.205904</ele>
        <time>2024-09-22T08:08:45.000Z</time>
      </trkpt>
      <trkpt lat="41.049396" lon="-71.90695">
        <ele>4.770908</ele>
        <time>2024-09-22T08:09:06.000Z</time>
      </trkpt>
      <trkpt lat="41.049241" lon="-71.906983">
        <ele>4.801779</ele>
        <time>2024-09-22T08:09:08.000Z</time>
      </trkpt>
      <trkpt lat="41.04883" lon="-71.907117">
        <ele>4.882121</ele>
        <time>2024-09-22T08:09:13.000Z</time>
      </trkpt>
      <trkpt lat="41.048784" lon="-71.907092">
        <ele>4.891808</ele>
        <time>2024-09-22T08:09:14.000Z</time>
      </trkpt>
      <trkpt lat="41.047727" lon="-71.908605">
        <ele>4.937725</ele>
        <time>2024-09-22T08:09:31.000Z</time>
      </trkpt>
      <trkpt lat="41.047381" lon="-71.909063">
        <ele>4.736607</ele>
        <time>2024-09-22T08:09:36.000Z</time>
      </trkpt>
      <trkpt lat="41.047159" lon="-71.90948">
        <ele>4.574482</ele>
        <time>2024-09-22T08:09:40.000Z</time>
      </trkpt>
      <trkpt lat="41.046879" lon="-71.910087">
        <ele>4.348166</ele>
        <time>2024-09-22T08:09:46.000Z</time>
      </trkpt>
      <trkpt lat="41.046637" lon="-71.910833">
        <ele>3.889869</ele>
        <time>2024-09-22T08:09:53.000Z</time>
      </trkpt>
      <trkpt lat="41.046572" lon="-71.911005">
        <ele>3.775852</ele>
        <time>2024-09-22T08:09:55.000Z</time>
      </trkpt>
      <trkpt lat="41.046394" lon="-71.911687">
        <ele>3.376386</ele>
        <time>2024-09-22T08:10:01.000Z</time>
      </trkpt>
      <trkpt lat="41.046172" lon="-71.913189">
        <ele>3.021361</ele>
        <time>2024-09-22T08:10:14.000Z</time>
      </trkpt>
      <trkpt lat="41.046103" lon="-71.913955">
        <ele>3.022517</ele>
        <time>2024-09-22T08:10:20.000Z</time>
      </trkpt>
      <trkpt lat="41.045384" lon="-71.919214">
        <ele>5.387567</ele>
        <time>2024-09-22T08:11:05.000Z</time>
      </trkpt>
      <trkpt lat="41.045231" lon="-71.919837">
        <ele>5.49931</ele>
        <time>2024-09-22T08:11:10.000Z</time>
      </trkpt>
      <trkpt lat="41.044762" lon="-71.920955">
        <ele>5.595574</ele>
        <time>2024-09-22T08:11:21.000Z</time>
      </trkpt>
      <trkpt lat="41.044489" lon="-71.921423">
        <ele>5.639656</ele>
        <time>2024-09-22T08:11:26.000Z</time>
      </trkpt>
      <trkpt lat="41.044156" lon="-71.921883">
        <ele>5.804824</ele>
        <time>2024-09-22T08:11:31.000Z</time>
      </trkpt>
      <trkpt lat="41.043974" lon="-71.92214">
        <ele>5.896448</ele>
        <time>2024-09-22T08:11:34.000Z</time>
      </trkpt>
      <trkpt lat="41.043619" lon="-71.922818">
        <ele>6.109141</ele>
        <time>2024-09-22T08:11:41.000Z</time>
      </trkpt>
      <trkpt lat="41.042672" lon="-71.926012">
        <ele>7.999893</ele>
        <time>2024-09-22T08:12:10.000Z</time>
      </trkpt>
      <trkpt lat="41.042728" lon="-71.926441">
        <ele>8.087969</ele>
        <time>2024-09-22T08:12:14.000Z</time>
      </trkpt>
      <trkpt lat="41.042805" lon="-71.926634">
        <ele>8.132871</ele>
        <time>2024-09-22T08:12:16.000Z</time>
      </trkpt>
      <trkpt lat="41.042814" lon="-71.926675">
        <ele>8.141487</ele>
        <time>2024-09-22T08:12:16.000Z</time>
      </trkpt>
      <trkpt lat="41.042938" lon="-71.926858">
        <ele>8.188409</ele>
        <time>2024-09-22T08:12:18.000Z</time>
      </trkpt>
      <trkpt lat="41.043399" lon="-71.927301">
        <ele>8.342744</ele>
        <time>2024-09-22T08:12:24.000Z</time>
      </trkpt>
      <trkpt lat="41.043727" lon="-71.92755">
        <ele>8.256695</ele>
        <time>2024-09-22T08:12:28.000Z</time>
      </trkpt>
      <trkpt lat="41.044043" lon="-71.927769">
        <ele>8.048724</ele>
        <time>2024-09-22T08:12:32.000Z</time>
      </trkpt>
      <trkpt lat="41.044235" lon="-71.927887">
        <ele>7.930782</ele>
        <time>2024-09-22T08:12:34.000Z</time>
      </trkpt>
      <trkpt lat="41.044591" lon="-71.92809">
        <ele>7.714303</ele>
        <time>2024-09-22T08:12:38.000Z</time>
      </trkpt>
      <trkpt lat="41.04506" lon="-71.928201">
        <ele>7.436087</ele>
        <time>2024-09-22T08:12:43.000Z</time>
      </trkpt>
      <trkpt lat="41.045579" lon="-71.928221">
        <ele>7.147073</ele>
        <time>2024-09-22T08:12:49.000Z</time>
      </trkpt>
      <trkpt lat="41.047041" lon="-71.92819">
        <ele>6.357393</ele>
        <time>2024-09-22T08:13:05.000Z</time>
      </trkpt>
      <trkpt lat="41.047715" lon="-71.928227">
        <ele>5.933942</ele>
        <time>2024-09-22T08:13:13.000Z</time>
      </trkpt>
      <trkpt lat="41.048358" lon="-71.928335">
        <ele>5.532138</ele>
        <time>2024-09-22T08:13:20.000Z</time>
      </trkpt>
      <trkpt lat="41.050553" lon="-71.928766">
        <ele>3.301295</ele>
        <time>2024-09-22T08:13:45.000Z</time>
      </trkpt>
      <trkpt lat="41.051253" lon="-71.928877">
        <ele>2.6716</ele>
        <time>2024-09-22T08:13:53.000Z</time>
      </trkpt>
      <trkpt lat="41.05231" lon="-71.929067">
        <ele>1.719665</ele>
        <time>2024-09-22T08:14:05.000Z</time>
      </trkpt>
      <trkpt lat="41.053142" lon="-71.929198">
        <ele>1.60035</ele>
        <time>2024-09-22T08:14:14.000Z</time>
      </trkpt>
      <trkpt lat="41.05475" lon="-71.929506">
        <ele>1.717804</ele>
        <time>2024-09-22T08:14:32.000Z</time>
      </trkpt>
      <trkpt lat="41.055162" lon="-71.929618">
        <ele>1.873202</ele>
        <time>2024-09-22T08:14:37.000Z</time>
      </trkpt>
      <trkpt lat="41.055682" lon="-71.929877">
        <ele>2.077953</ele>
        <time>2024-09-22T08:14:43.000Z</time>
      </trkpt>
      <trkpt lat="41.056119" lon="-71.930176">
        <ele>2.240118</ele>
        <time>2024-09-22T08:14:48.000Z</time>
      </trkpt>
      <trkpt lat="41.056263" lon="-71.9303">
        <ele>2.292588</ele>
        <time>2024-09-22T08:14:50.000Z</time>
      </trkpt>
      <trkpt lat="41.056555" lon="-71.930592">
        <ele>2.404979</ele>
        <time>2024-09-22T08:14:54.000Z</time>
      </trkpt>
      <trkpt lat="41.056833" lon="-71.930854">
        <ele>2.512269</ele>
        <time>2024-09-22T08:14:58.000Z</time>
      </trkpt>
      <trkpt lat="41.057758" lon="-71.931948">
        <ele>2.818731</ele>
        <time>2024-09-22T08:15:12.000Z</time>
      </trkpt>
      <trkpt lat="41.058192" lon="-71.932376">
        <ele>2.921538</ele>
        <time>2024-09-22T08:15:18.000Z</time>
      </trkpt>
      <trkpt lat="41.058594" lon="-71.932696">
        <ele>3.010018</ele>
        <time>2024-09-22T08:15:23.000Z</time>
      </trkpt>
      <trkpt lat="41.059866" lon="-71.933718">
        <ele>2.880162</ele>
        <time>2024-09-22T08:15:40.000Z</time>
      </trkpt>
      <trkpt lat="41.060051" lon="-71.933864">
        <ele>2.85133</ele>
        <time>2024-09-22T08:15:42.000Z</time>
      </trkpt>
      <trkpt lat="41.06048" lon="-71.934174">
        <ele>2.729739</ele>
        <time>2024-09-22T08:15:47.000Z</time>
      </trkpt>
      <trkpt lat="41.061776" lon="-71.935029">
        <ele>2.137776</ele>
        <time>2024-09-22T08:16:03.000Z</time>
      </trkpt>
      <trkpt lat="41.063473" lon="-71.936088">
        <ele>1.564554</ele>
        <time>2024-09-22T08:16:24.000Z</time>
      </trkpt>
      <trkpt lat="41.064778" lon="-71.93708">
        <ele>1.529771</ele>
        <time>2024-09-22T08:16:41.000Z</time>
      </trkpt>
      <trkpt lat="41.065354" lon="-71.937588">
        <ele>1.558146</ele>
        <time>2024-09-22T08:16:49.000Z</time>
      </trkpt>
      <trkpt lat="41.0657" lon="-71.937959">
        <ele>1.601104</ele>
        <time>2024-09-22T08:16:54.000Z</time>
      </trkpt>
      <trkpt lat="41.065967" lon="-71.938355">
        <ele>1.639807</ele>
        <time>2024-09-22T08:16:58.000Z</time>
      </trkpt>
      <trkpt lat="41.066075" lon="-71.938551">
        <ele>1.657714</ele>
        <time>2024-09-22T08:17:00.000Z</time>
      </trkpt>
      <trkpt lat="41.066202" lon="-71.93872">
        <ele>1.674885</ele>
        <time>2024-09-22T08:17:02.000Z</time>
      </trkpt>
      <trkpt lat="41.0664" lon="-71.939053">
        <ele>1.698178</ele>
        <time>2024-09-22T08:17:06.000Z</time>
      </trkpt>
      <trkpt lat="41.066613" lon="-71.939392">
        <ele>1.686804</ele>
        <time>2024-09-22T08:17:10.000Z</time>
      </trkpt>
      <trkpt lat="41.066976" lon="-71.939813">
        <ele>1.670307</ele>
        <time>2024-09-22T08:17:15.000Z</time>
      </trkpt>
      <trkpt lat="41.067414" lon="-71.940039">
        <ele>1.654848</ele>
        <time>2024-09-22T08:17:20.000Z</time>
      </trkpt>
      <trkpt lat="41.067644" lon="-71.940121">
        <ele>1.646533</ele>
        <time>2024-09-22T08:17:23.000Z</time>
      </trkpt>
      <trkpt lat="41.067998" lon="-71.940169">
        <ele>1.652429</ele>
        <time>2024-09-22T08:17:27.000Z</time>
      </trkpt>
      <trkpt lat="41.069125" lon="-71.940206">
        <ele>1.748159</ele>
        <time>2024-09-22T08:17:40.000Z</time>
      </trkpt>
      <trkpt lat="41.069661" lon="-71.94024">
        <ele>1.792286</ele>
        <time>2024-09-22T08:17:46.000Z</time>
      </trkpt>
      <trkpt lat="41.070007" lon="-71.940326">
        <ele>1.741693</ele>
        <time>2024-09-22T08:17:50.000Z</time>
      </trkpt>
      <trkpt lat="41.070162" lon="-71.940383">
        <ele>1.720688</ele>
        <time>2024-09-22T08:17:52.000Z</time>
      </trkpt>
      <trkpt lat="41.070419" lon="-71.940539">
        <ele>1.681196</ele>
        <time>2024-09-22T08:17:55.000Z</time>
      </trkpt>
      <trkpt lat="41.070752" lon="-71.940756">
        <ele>1.631433</ele>
        <time>2024-09-22T08:17:59.000Z</time>
      </trkpt>
      <trkpt lat="41.071077" lon="-71.941083">
        <ele>1.575388</ele>
        <time>2024-09-22T08:18:04.000Z</time>
      </trkpt>
      <trkpt lat="41.071602" lon="-71.94173">
        <ele>1.442811</ele>
        <time>2024-09-22T08:18:12.000Z</time>
      </trkpt>
      <trkpt lat="41.071844" lon="-71.941819">
        <ele>1.390667</ele>
        <time>2024-09-22T08:18:15.000Z</time>
      </trkpt>
      <trkpt lat="41.072079" lon="-71.941753">
        <ele>1.342126</ele>
        <time>2024-09-22T08:18:18.000Z</time>
      </trkpt>
      <trkpt lat="41.073529" lon="-71.940044">
        <ele>1.227747</ele>
        <time>2024-09-22T08:18:40.000Z</time>
      </trkpt>
      <trkpt lat="41.073652" lon="-71.939892">
        <ele>1.235434</ele>
        <time>2024-09-22T08:18:42.000Z</time>
      </trkpt>
      <trkpt lat="41.074566" lon="-71.938817">
        <ele>1.5104</ele>
        <time>2024-09-22T08:18:56.000Z</time>
      </trkpt>
      <trkpt lat="41.074709" lon="-71.938726">
        <ele>1.563666</ele>
        <time>2024-09-22T08:18:58.000Z</time>
      </trkpt>
      <trkpt lat="41.07487" lon="-71.93873">
        <ele>1.621833</ele>
        <time>2024-09-22T08:19:00.000Z</time>
      </trkpt>
      <trkpt lat="41.0753" lon="-71.938864">
        <ele>1.774536</ele>
        <time>2024-09-22T08:19:05.000Z</time>
      </trkpt>
      <trkpt lat="41.075647" lon="-71.938984">
        <ele>1.901907</ele>
        <time>2024-09-22T08:19:09.000Z</time>
      </trkpt>
      <trkpt lat="41.075845" lon="-71.939046">
        <ele>1.989442</ele>
        <time>2024-09-22T08:19:11.000Z</time>
      </trkpt>
      <trkpt lat="41.075883" lon="-71.939094">
        <ele>2.008989</ele>
        <time>2024-09-22T08:19:12.000Z</time>
      </trkpt>
      <trkpt lat="41.075956" lon="-71.93916">
        <ele>2.046086</ele>
        <time>2024-09-22T08:19:13.000Z</time>
      </trkpt>
      <trkpt lat="41.075984" lon="-71.939291">
        <ele>2.083966</ele>
        <time>2024-09-22T08:19:14.000Z</time>
      </trkpt>
      <trkpt lat="41.07597" lon="-71.939422">
        <ele>2.125595</ele>
        <time>2024-09-22T08:19:15.000Z</time>
      </trkpt>
      <trkpt lat="41.075767" lon="-71.94024">
        <ele>2.388076</ele>
        <time>2024-09-22T08:19:22.000Z</time>
      </trkpt>
      <trkpt lat="41.07559" lon="-71.940861">
        <ele>2.59157</ele>
        <time>2024-09-22T08:19:28.000Z</time>
      </trkpt>
      <trkpt lat="41.075435" lon="-71.941255">
        <ele>2.560274</ele>
        <time>2024-09-22T08:19:32.000Z</time>
      </trkpt>
      <trkpt lat="41.075153" lon="-71.941635">
        <ele>2.48654</ele>
        <time>2024-09-22T08:19:36.000Z</time>
      </trkpt>
      <trkpt lat="41.074964" lon="-71.941839">
        <ele>2.441016</ele>
        <time>2024-09-22T08:19:39.000Z</time>
      </trkpt>
      <trkpt lat="41.074633" lon="-71.942123">
        <ele>2.371536</ele>
        <time>2024-09-22T08:19:43.000Z</time>
      </trkpt>
      <trkpt lat="41.074396" lon="-71.942266">
        <ele>2.322461</ele>
        <time>2024-09-22T08:19:46.000Z</time>
      </trkpt>
      <trkpt lat="41.073924" lon="-71.94246">
        <ele>2.133931</ele>
        <time>2024-09-22T08:19:51.000Z</time>
      </trkpt>
      <trkpt lat="41.073585" lon="-71.942528">
        <ele>1.956087</ele>
        <time>2024-09-22T08:19:55.000Z</time>
      </trkpt>
      <trkpt lat="41.073181" lon="-71.942549">
        <ele>1.735227</ele>
        <time>2024-09-22T08:19:59.000Z</time>
      </trkpt>
      <trkpt lat="41.072786" lon="-71.942464">
        <ele>1.521468</ele>
        <time>2024-09-22T08:20:03.000Z</time>
      </trkpt>
      <trkpt lat="41.072664" lon="-71.942423">
        <ele>1.460639</ele>
        <time>2024-09-22T08:20:04.000Z</time>
      </trkpt>
      <trkpt lat="41.07255" lon="-71.942384">
        <ele>1.397034</ele>
        <time>2024-09-22T08:20:05.000Z</time>
      </trkpt>
      <trkpt lat="41.072257" lon="-71.942268">
        <ele>1.349881</ele>
        <time>2024-09-22T08:20:08.000Z</time>
      </trkpt>
      <trkpt lat="41.072189" lon="-71.942223">
        <ele>1.362378</ele>
        <time>2024-09-22T08:20:09.000Z</time>
      </trkpt>
      <trkpt lat="41.071878" lon="-71.942284">
        <ele>1.414598</ele>
        <time>2024-09-22T08:20:12.000Z</time>
      </trkpt>
      <trkpt lat="41.071553" lon="-71.942527">
        <ele>1.474613</ele>
        <time>2024-09-22T08:20:16.000Z</time>
      </trkpt>
      <trkpt lat="41.071189" lon="-71.943115">
        <ele>1.56777</ele>
        <time>2024-09-22T08:20:22.000Z</time>
      </trkpt>
      <trkpt lat="41.071073" lon="-71.943314">
        <ele>1.599081</ele>
        <time>2024-09-22T08:20:24.000Z</time>
      </trkpt>
      <trkpt lat="41.070589" lon="-71.944103">
        <ele>2.325575</ele>
        <time>2024-09-22T08:20:33.000Z</time>
      </trkpt>
      <trkpt lat="41.070101" lon="-71.944807">
        <ele>3.098904</ele>
        <time>2024-09-22T08:20:41.000Z</time>
      </trkpt>
      <trkpt lat="41.06986" lon="-71.945067">
        <ele>3.429332</ele>
        <time>2024-09-22T08:20:44.000Z</time>
      </trkpt>
      <trkpt lat="41.069549" lon="-71.94534">
        <ele>4.0898</ele>
        <time>2024-09-22T08:20:48.000Z</time>
      </trkpt>
      <trkpt lat="41.068883" lon="-71.945767">
        <ele>5.62634</ele>
        <time>2024-09-22T08:20:56.000Z</time>
      </trkpt>
      <trkpt lat="41.066897" lon="-71.946805">
        <ele>11.395012</ele>
        <time>2024-09-22T08:21:20.000Z</time>
      </trkpt>
      <trkpt lat="41.062843" lon="-71.948937">
        <ele>29.443137</ele>
        <time>2024-09-22T08:22:09.000Z</time>
      </trkpt>
      <trkpt lat="41.061642" lon="-71.949556">
        <ele>33.34077</ele>
        <time>2024-09-22T08:22:23.000Z</time>
      </trkpt>
      <trkpt lat="41.060853" lon="-71.949931">
        <ele>34.255867</ele>
        <time>2024-09-22T08:22:32.000Z</time>
      </trkpt>
      <trkpt lat="41.060019" lon="-71.950204">
        <ele>34.664615</ele>
        <time>2024-09-22T08:22:42.000Z</time>
      </trkpt>
      <trkpt lat="41.059333" lon="-71.950351">
        <ele>34.743032</ele>
        <time>2024-09-22T08:22:50.000Z</time>
      </trkpt>
      <trkpt lat="41.057031" lon="-71.950534">
        <ele>33.869842</ele>
        <time>2024-09-22T08:23:16.000Z</time>
      </trkpt>
      <trkpt lat="41.055204" lon="-71.95067">
        <ele>31.143326</ele>
        <time>2024-09-22T08:23:36.000Z</time>
      </trkpt>
      <trkpt lat="41.054304" lon="-71.950842">
        <ele>29.005315</ele>
        <time>2024-09-22T08:23:46.000Z</time>
      </trkpt>
      <trkpt lat="41.053893" lon="-71.950971">
        <ele>26.711105</ele>
        <time>2024-09-22T08:23:51.000Z</time>
      </trkpt>
      <trkpt lat="41.05127" lon="-71.951982">
        <ele>11.616565</ele>
        <time>2024-09-22T08:24:21.000Z</time>
      </trkpt>
      <trkpt lat="41.050612" lon="-71.952211">
        <ele>8.470483</ele>
        <time>2024-09-22T08:24:29.000Z</time>
      </trkpt>
      <trkpt lat="41.050062" lon="-71.952398">
        <ele>6.604244</ele>
        <time>2024-09-22T08:24:35.000Z</time>
      </trkpt>
      <trkpt lat="41.049803" lon="-71.952454">
        <ele>5.788588</ele>
        <time>2024-09-22T08:24:38.000Z</time>
      </trkpt>
      <trkpt lat="41.049722" lon="-71.952458">
        <ele>5.523683</ele>
        <time>2024-09-22T08:24:39.000Z</time>
      </trkpt>
      <trkpt lat="41.049337" lon="-71.952506">
        <ele>4.26772</ele>
        <time>2024-09-22T08:24:43.000Z</time>
      </trkpt>
      <trkpt lat="41.048775" lon="-71.95252">
        <ele>3.502582</ele>
        <time>2024-09-22T08:24:49.000Z</time>
      </trkpt>
      <trkpt lat="41.048441" lon="-71.952476">
        <ele>3.405865</ele>
        <time>2024-09-22T08:24:53.000Z</time>
      </trkpt>
      <trkpt lat="41.047917" lon="-71.952342">
        <ele>3.251442</ele>
        <time>2024-09-22T08:24:59.000Z</time>
      </trkpt>
      <trkpt lat="41.047499" lon="-71.952186">
        <ele>3.129792</ele>
        <time>2024-09-22T08:25:04.000Z</time>
      </trkpt>
      <trkpt lat="41.046732" lon="-71.951777">
        <ele>3.346292</ele>
        <time>2024-09-22T08:25:13.000Z</time>
      </trkpt>
      <trkpt lat="41.04531" lon="-71.950903">
        <ele>3.589799</ele>
        <time>2024-09-22T08:25:30.000Z</time>
      </trkpt>
      <trkpt lat="41.044505" lon="-71.95041">
        <ele>3.23847</ele>
        <time>2024-09-22T08:25:40.000Z</time>
      </trkpt>
      <trkpt lat="41.044302" lon="-71.950241">
        <ele>3.146002</ele>
        <time>2024-09-22T08:25:43.000Z</time>
      </trkpt>
      <trkpt lat="41.044103" lon="-71.950006">
        <ele>3.075849</ele>
        <time>2024-09-22T08:25:46.000Z</time>
      </trkpt>
      <trkpt lat="41.043842" lon="-71.949614">
        <ele>3.291179</ele>
        <time>2024-09-22T08:25:50.000Z</time>
      </trkpt>
      <trkpt lat="41.043342" lon="-71.948469">
        <ele>3.842744</ele>
        <time>2024-09-22T08:26:01.000Z</time>
      </trkpt>
      <trkpt lat="41.043006" lon="-71.947854">
        <ele>4.298067</ele>
        <time>2024-09-22T08:26:07.000Z</time>
      </trkpt>
      <trkpt lat="41.042725" lon="-71.94751">
        <ele>4.759377</ele>
        <time>2024-09-22T08:26:11.000Z</time>
      </trkpt>
      <trkpt lat="41.042578" lon="-71.947371">
        <ele>5.002939</ele>
        <time>2024-09-22T08:26:13.000Z</time>
      </trkpt>
      <trkpt lat="41.041881" lon="-71.946865">
        <ele>5.964827</ele>
        <time>2024-09-22T08:26:22.000Z</time>
      </trkpt>
      <trkpt lat="41.040979" lon="-71.946279">
        <ele>6.268761</ele>
        <time>2024-09-22T08:26:33.000Z</time>
      </trkpt>
      <trkpt lat="41.040537" lon="-71.946006">
        <ele>6.278667</ele>
        <time>2024-09-22T08:26:38.000Z</time>
      </trkpt>
      <trkpt lat="41.039927" lon="-71.945737">
        <ele>6.224107</ele>
        <time>2024-09-22T08:26:45.000Z</time>
      </trkpt>
      <trkpt lat="41.039439" lon="-71.945578">
        <ele>5.91</ele>
        <time>2024-09-22T08:26:51.000Z</time>
      </trkpt>
      <trkpt lat="41.038559" lon="-71.945358">
        <ele>5.357837</ele>
        <time>2024-09-22T08:27:01.000Z</time>
      </trkpt>
      <trkpt lat="41.038206" lon="-71.945248">
        <ele>5.14342325363</ele>
        <time>2024-09-22T08:27:05.000Z</time>
      </trkpt>
      <trkpt lat="41.037756" lon="-71.94512">
        <ele>4.87128711131</ele>
        <time>2024-09-22T08:27:10.000Z</time>
      </trkpt>
      <trkpt lat="41.037609" lon="-71.945086">
        <ele>4.78305449016</ele>
        <time>2024-09-22T08:27:12.000Z</time>
      </trkpt>
      <trkpt lat="41.036587" lon="-71.94478">
        <ele>4.16353550914</ele>
        <time>2024-09-22T08:27:24.000Z</time>
      </trkpt>
      <trkpt lat="41.036503" lon="-71.944755">
        <ele>4.11263088316</ele>
        <time>2024-09-22T08:27:25.000Z</time>
      </trkpt>
    </trkseg>
  </trk>
</gpx>

<!--
Performance optimized by W3 Total Cache. Learn more: https://www.boldgrid.com/w3-total-cache/?utm_source=w3tc&utm_medium=footer_comment&utm_campaign=free_plugin

Page Caching using Disk: Enhanced{w3tc_pagecache_reject_reason} 

Served from: www.aquabike.world @ 2026-05-11 00:10:44 by W3 Total Cache
-->